CheckWX is a tool to help pilots better visualize weather data.  It is not intended as a substitute for an official pre-flight weather briefing.

04:52:16 UTC

VMMC TAF
Macau International Airport
Taipa, Macau
TAF AMD VMMC 180336Z 1803/1906 16008KT 9999 FEW015 SCT030 TEMPO 1803/1806 VRB15G25KT 3500 TSRA FEW010CB SCT020

Jun-18@
03:00 UTC

Jun-18 @ 03:00 UTC

Jun-19@
06:00 UTC

Jun-19 @ 06:00 UTC

TAF AMD VMMC 180336Z 1803/1906 16008KT 9999 FEW015 SCT030
Wind
  • 160° at 8 KTS
Cloud Levels
  • Few at 1,500' AGL
  • Scattered at 3,000' AGL

Jun-18@
03:00 UTC

Jun-18 @ 03:00 UTC

Jun-18@
06:00 UTC

Jun-18 @ 06:00 UTC

TEMPO 1803/1806 VRB15G25KT 3500 TSRA FEW010CB SCT020

Temporary

Temporary Changes expected for less than half the time period

Wind
  • Variable at 15 KTS
  • {Gusting to 25 KTS
Conditions
Thunderstorm, Rain
Cloud Levels
  • Few at 1,000' AGL
  • Scattered at 2,000' AGL